Time;durP1;ratioP1;P1;durP2;ratioP2;P2;SDS_P1;SDS_P2;PMS_P1;PMS_P2;Temp;Humidity;BMP_temperature;BMP_pressure;BME280_temperature;BME280_humidity;BME280_pressure;Samples;Min_cycle;Max_cycle;Signal;HPM_P1;HPM_P2
2022/09/07 00:02:19;;;;;;;4.80;3.40;;;;;;;;;;5075647;28;20765;-74
2022/09/07 00:04:46;;;;;;;5.47;3.30;;;;;;;;;;5077026;28;20895;-74
2022/09/07 00:07:16;;;;;;;4.63;3.63;;;;;;;;;;5075634;28;20464;-74
2022/09/07 00:09:50;;;;;;;4.33;3.27;;;;;;;;;;5076248;28;20452;-74
2022/09/07 00:12:24;;;;;;;7.60;3.50;;;;;;;;;;5075985;28;20505;-74
2022/09/07 00:14:54;;;;;;;4.70;3.97;;;;;;;;;;5075877;28;20456;-74
2022/09/07 00:17:22;;;;;;;5.40;3.30;;;;;;;;;;5075342;28;20482;-74
2022/09/07 00:19:55;;;;;;;5.23;3.80;;;;;;;;;;5074845;28;20456;-74
2022/09/07 00:22:29;;;;;;;4.23;3.20;;;;;;;;;;5075555;28;20480;-74
2022/09/07 00:24:56;;;;;;;5.50;3.67;;;;;;;;;;5076334;28;20574;-74
2022/09/07 00:27:23;;;;;;;4.40;3.60;;;;;;;;;;5074833;28;20449;-74
2022/09/07 00:29:53;;;;;;;6.87;3.37;;;;;;;;;;5077033;28;20460;-74
2022/09/07 00:32:37;;;;;;;5.23;3.40;;;;;;;;;;5074889;28;20839;-72
2022/09/07 00:35:05;;;;;;;5.80;3.67;;;;;;;;;;5075772;28;20460;-73
2022/09/07 00:37:33;;;;;;;4.80;3.07;;;;;;;;;;5075289;28;20453;-73
2022/09/07 00:40:04;;;;;;;7.33;3.33;;;;;;;;;;5076268;28;20448;-74
2022/09/07 00:42:32;;;;;;;3.90;2.97;;;;;;;;;;5075301;28;20486;-73
2022/09/07 00:45:09;;;;;;;3.50;2.70;;;;;;;;;;5075175;28;20718;-73
2022/09/07 00:47:42;;;;;;;6.13;3.37;;;;;;;;;;5075412;28;20516;-73
2022/09/07 00:50:13;;;;;;;4.70;3.57;;;;;;;;;;5076557;28;20712;-74
2022/09/07 00:52:44;;;;;;;12.50;3.73;;;;;;;;;;5074746;28;20770;-73
2022/09/07 00:55:14;;;;;;;6.00;3.20;;;;;;;;;;5074395;28;20560;-75
2022/09/07 00:57:46;;;;;;;5.87;2.97;;;;;;;;;;5074914;28;20490;-73
2022/09/07 01:00:14;;;;;;;5.60;3.27;;;;;;;;;;5074254;28;20907;-74
2022/09/07 01:02:44;;;;;;;4.43;2.87;;;;;;;;;;5063675;28;20484;-74
2022/09/07 01:05:19;;;;;;;3.70;2.80;;;;;;;;;;5074616;28;20453;-73
2022/09/07 01:08:12;;;;;;;4.17;2.70;;;;;;;;;;5074881;28;20448;-72
2022/09/07 01:10:40;;;;;;;3.27;2.70;;;;;;;;;;5074471;28;20452;-71
2022/09/07 01:13:09;;;;;;;5.67;3.53;;;;;;;;;;5075234;28;20498;-73
2022/09/07 01:15:43;;;;;;;7.10;3.10;;;;;;;;;;5075515;28;20547;-74
2022/09/07 01:18:17;;;;;;;6.33;3.10;;;;;;;;;;5073001;28;20559;-74
2022/09/07 01:20:59;;;;;;;4.63;3.13;;;;;;;;;;5073730;28;20502;-73
2022/09/07 01:24:00;;;;;;;5.70;3.03;;;;;;;;;;5073903;28;20455;-74
2022/09/07 01:26:45;;;;;;;5.10;3.00;;;;;;;;;;5074223;28;20874;-74
2022/09/07 01:29:17;;;;;;;5.00;2.83;;;;;;;;;;5073583;28;20452;-74
2022/09/07 01:31:49;;;;;;;4.27;3.07;;;;;;;;;;5074683;28;20460;-74
2022/09/07 01:37:05;;;;;;;4.33;3.40;;;;;;;;;;5066447;28;20647;-74
2022/09/07 01:39:35;;;;;;;4.60;3.37;;;;;;;;;;5074519;28;20445;-74
2022/09/07 01:42:05;;;;;;;4.50;3.50;;;;;;;;;;5074132;28;20519;-74
2022/09/07 01:44:34;;;;;;;5.00;2.70;;;;;;;;;;5061263;28;20538;-73
2022/09/07 01:47:02;;;;;;;9.40;3.17;;;;;;;;;;5054880;28;20472;-74
2022/09/07 01:49:33;;;;;;;5.70;3.63;;;;;;;;;;5074723;28;20467;-74
2022/09/07 01:52:02;;;;;;;5.20;3.37;;;;;;;;;;5074642;28;20563;-74
2022/09/07 01:54:32;;;;;;;5.17;3.20;;;;;;;;;;5074586;28;20452;-74
2022/09/07 01:57:02;;;;;;;5.53;2.97;;;;;;;;;;5073016;28;20452;-74
2022/09/07 01:59:30;;;;;;;4.90;3.50;;;;;;;;;;5074184;28;20444;-74
2022/09/07 02:02:01;;;;;;;4.67;3.00;;;;;;;;;;5073739;28;20484;-74
2022/09/07 02:04:31;;;;;;;9.37;3.83;;;;;;;;;;5073936;28;20447;-74
2022/09/07 02:07:05;;;;;;;5.97;3.30;;;;;;;;;;5074696;28;20460;-74
2022/09/07 02:09:33;;;;;;;6.07;3.77;;;;;;;;;;5073516;28;20942;-74
2022/09/07 02:12:02;;;;;;;6.33;2.97;;;;;;;;;;5073863;28;20464;-74
2022/09/07 02:14:30;;;;;;;4.30;2.67;;;;;;;;;;5063343;28;20493;-74
2022/09/07 02:17:01;;;;;;;5.13;3.60;;;;;;;;;;5069415;28;20811;-74
2022/09/07 02:19:30;;;;;;;3.77;3.13;;;;;;;;;;5074290;28;20793;-74
2022/09/07 02:21:59;;;;;;;6.27;2.67;;;;;;;;;;5072163;28;20484;-73
2022/09/07 02:24:28;;;;;;;5.80;3.23;;;;;;;;;;5073979;28;20977;-74
2022/09/07 02:26:56;;;;;;;3.67;2.80;;;;;;;;;;5073421;28;20456;-74
2022/09/07 02:29:25;;;;;;;4.73;2.70;;;;;;;;;;5072215;28;20444;-74
2022/09/07 02:31:52;;;;;;;4.67;3.43;;;;;;;;;;5072729;28;20480;-74
2022/09/07 02:34:20;;;;;;;4.00;3.33;;;;;;;;;;5072522;28;20444;-74
2022/09/07 02:36:48;;;;;;;4.20;3.10;;;;;;;;;;5073625;28;20480;-74
2022/09/07 02:39:15;;;;;;;5.00;2.90;;;;;;;;;;5072898;28;20457;-74
2022/09/07 02:41:43;;;;;;;4.70;3.20;;;;;;;;;;5074446;28;20480;-73
2022/09/07 02:44:12;;;;;;;6.30;3.13;;;;;;;;;;5074370;28;20506;-73
2022/09/07 02:46:55;;;;;;;3.50;2.70;;;;;;;;;;5073118;28;20449;-73
2022/09/07 02:49:31;;;;;;;4.03;2.83;;;;;;;;;;5073623;28;20445;-73
2022/09/07 02:52:02;;;;;;;5.50;3.37;;;;;;;;;;5073175;28;20448;-73
2022/09/07 02:54:35;;;;;;;4.33;2.93;;;;;;;;;;5073276;28;20675;-73
2022/09/07 02:57:05;;;;;;;5.00;3.10;;;;;;;;;;5073290;28;20614;-73
2022/09/07 02:59:40;;;;;;;4.37;3.40;;;;;;;;;;5073893;28;20530;-73
2022/09/07 03:02:10;;;;;;;6.53;3.73;;;;;;;;;;5072400;28;20548;-73
2022/09/07 03:04:44;;;;;;;4.63;3.80;;;;;;;;;;5073676;28;20894;-73
2022/09/07 03:07:14;;;;;;;6.70;3.50;;;;;;;;;;5073380;28;20456;-73
2022/09/07 03:09:43;;;;;;;6.50;3.40;;;;;;;;;;5077148;28;20467;-75
2022/09/07 03:12:11;;;;;;;4.97;3.30;;;;;;;;;;5076890;28;20448;-74
2022/09/07 03:14:40;;;;;;;7.63;3.80;;;;;;;;;;5076741;28;20457;-74
2022/09/07 03:17:10;;;;;;;3.53;2.90;;;;;;;;;;5076530;28;20513;-75
2022/09/07 03:19:38;;;;;;;5.00;3.97;;;;;;;;;;5076270;28;20452;-73
2022/09/07 03:22:06;;;;;;;5.23;3.40;;;;;;;;;;5076528;28;20492;-73
2022/09/07 03:24:33;;;;;;;5.43;4.00;;;;;;;;;;5076307;28;20863;-73
2022/09/07 03:27:00;;;;;;;4.13;3.40;;;;;;;;;;5075932;28;20441;-73
2022/09/07 03:29:27;;;;;;;4.17;3.33;;;;;;;;;;5076219;28;20536;-73
2022/09/07 03:31:54;;;;;;;3.97;2.93;;;;;;;;;;5076583;28;20448;-74
2022/09/07 03:34:21;;;;;;;7.33;3.53;;;;;;;;;;5076624;28;20503;-74
2022/09/07 03:36:49;;;;;;;5.43;3.10;;;;;;;;;;5075619;28;20444;-74
2022/09/07 03:39:19;;;;;;;5.33;3.37;;;;;;;;;;5076761;28;20858;-74
2022/09/07 03:41:47;;;;;;;4.90;3.50;;;;;;;;;;5075351;28;20492;-74
2022/09/07 03:44:14;;;;;;;5.37;3.03;;;;;;;;;;5077819;28;20456;-74
2022/09/07 03:46:41;;;;;;;6.13;3.70;;;;;;;;;;5075866;28;20468;-74
2022/09/07 03:49:08;;;;;;;7.13;3.47;;;;;;;;;;5076127;28;20843;-75
2022/09/07 03:51:35;;;;;;;5.30;3.47;;;;;;;;;;5058304;28;20857;-74
2022/09/07 03:54:01;;;;;;;4.80;3.20;;;;;;;;;;5075543;28;20456;-74
2022/09/07 03:56:29;;;;;;;6.30;3.87;;;;;;;;;;5076770;28;20456;-74
2022/09/07 03:58:56;;;;;;;4.17;2.87;;;;;;;;;;5075020;28;20822;-75
2022/09/07 04:01:25;;;;;;;4.70;3.30;;;;;;;;;;5076467;28;20486;-73
2022/09/07 04:03:53;;;;;;;7.63;3.80;;;;;;;;;;5075577;28;20441;-74
2022/09/07 04:06:20;;;;;;;4.20;2.67;;;;;;;;;;5075976;28;20456;-74
2022/09/07 04:08:47;;;;;;;4.73;4.10;;;;;;;;;;5075229;28;20449;-75
2022/09/07 04:11:15;;;;;;;7.10;3.10;;;;;;;;;;5074733;28;20544;-75
2022/09/07 04:13:43;;;;;;;7.13;3.20;;;;;;;;;;5073671;28;20725;-74
2022/09/07 04:16:12;;;;;;;4.60;3.47;;;;;;;;;;5072828;28;20878;-75
2022/09/07 04:18:38;;;;;;;5.40;3.10;;;;;;;;;;5071417;28;20473;-75
2022/09/07 04:21:08;;;;;;;9.13;3.63;;;;;;;;;;5073260;28;20452;-74
2022/09/07 04:23:38;;;;;;;4.30;3.07;;;;;;;;;;5073581;28;20448;-75
2022/09/07 04:26:05;;;;;;;7.80;2.93;;;;;;;;;;5074238;28;20445;-74
2022/09/07 04:28:32;;;;;;;7.93;3.00;;;;;;;;;;5073644;28;20464;-74
2022/09/07 04:31:03;;;;;;;4.63;3.00;;;;;;;;;;5072748;28;20462;-74
2022/09/07 04:33:31;;;;;;;4.80;2.73;;;;;;;;;;5074251;28;20867;-73
2022/09/07 04:36:00;;;;;;;6.37;3.53;;;;;;;;;;5072951;28;20904;-73
2022/09/07 04:38:27;;;;;;;6.93;4.33;;;;;;;;;;5072584;28;21062;-73
2022/09/07 04:40:59;;;;;;;21.17;6.40;;;;;;;;;;5073892;28;20592;-73
2022/09/07 04:43:26;;;;;;;6.07;2.90;;;;;;;;;;5073701;28;20453;-73
2022/09/07 04:45:54;;;;;;;4.93;3.00;;;;;;;;;;5073938;28;20812;-73
2022/09/07 04:48:22;;;;;;;7.10;3.10;;;;;;;;;;5074471;28;20456;-73
2022/09/07 04:50:49;;;;;;;6.60;3.07;;;;;;;;;;5074945;28;20530;-73
2022/09/07 04:53:16;;;;;;;6.80;3.23;;;;;;;;;;5074127;28;20460;-75
2022/09/07 04:55:43;;;;;;;6.60;3.77;;;;;;;;;;5074112;28;20451;-75
2022/09/07 04:58:10;;;;;;;7.70;3.40;;;;;;;;;;5073695;28;20478;-75
2022/09/07 05:00:40;;;;;;;6.80;4.87;;;;;;;;;;5072369;28;20898;-75
2022/09/07 05:03:10;;;;;;;6.13;3.00;;;;;;;;;;5074225;28;20824;-76
2022/09/07 05:05:38;;;;;;;6.83;3.90;;;;;;;;;;5074204;28;20455;-74
2022/09/07 05:08:06;;;;;;;5.90;2.77;;;;;;;;;;5073239;28;20949;-74
2022/09/07 05:10:33;;;;;;;5.27;2.90;;;;;;;;;;5073612;28;20460;-74
2022/09/07 05:13:01;;;;;;;5.87;3.10;;;;;;;;;;5072439;28;20460;-74
2022/09/07 05:15:29;;;;;;;5.90;3.60;;;;;;;;;;5072902;28;20458;-74
2022/09/07 05:17:56;;;;;;;5.23;3.40;;;;;;;;;;5073455;28;20698;-74
2022/09/07 05:20:23;;;;;;;5.00;3.53;;;;;;;;;;5071503;28;20791;-74
2022/09/07 05:22:58;;;;;;;9.17;3.80;;;;;;;;;;5071644;28;20953;-74
2022/09/07 05:25:30;;;;;;;11.13;3.50;;;;;;;;;;5071701;28;20489;-75
2022/09/07 05:28:00;;;;;;;8.03;3.97;;;;;;;;;;5063218;28;20452;-74
2022/09/07 05:30:30;;;;;;;6.00;3.30;;;;;;;;;;5072156;28;20460;-74
2022/09/07 05:32:57;;;;;;;4.80;2.73;;;;;;;;;;5056868;28;20531;-74
2022/09/07 05:35:25;;;;;;;5.20;3.53;;;;;;;;;;5051409;28;20481;-74
2022/09/07 05:37:52;;;;;;;4.40;3.77;;;;;;;;;;5068370;28;20444;-74
2022/09/07 05:40:21;;;;;;;5.93;3.50;;;;;;;;;;5068694;28;20465;-74
2022/09/07 05:42:48;;;;;;;5.67;3.20;;;;;;;;;;5065703;28;20519;-74
2022/09/07 05:45:16;;;;;;;5.23;3.60;;;;;;;;;;5068553;28;20983;-75
2022/09/07 05:47:49;;;;;;;6.23;4.20;;;;;;;;;;5069588;28;20580;-75
2022/09/07 05:50:16;;;;;;;6.87;3.77;;;;;;;;;;5069157;28;20452;-74
2022/09/07 05:52:47;;;;;;;8.70;4.07;;;;;;;;;;5070568;28;20483;-75
2022/09/07 05:55:14;;;;;;;4.73;3.60;;;;;;;;;;5069058;28;20866;-73
2022/09/07 05:57:43;;;;;;;6.23;4.20;;;;;;;;;;5072097;28;20593;-74
2022/09/07 06:00:12;;;;;;;12.40;3.00;;;;;;;;;;5071245;28;20468;-73
2022/09/07 06:02:41;;;;;;;8.97;4.30;;;;;;;;;;5058830;28;20480;-74
2022/09/07 06:05:10;;;;;;;9.30;3.43;;;;;;;;;;5070845;28;20537;-74
2022/09/07 06:07:37;;;;;;;8.67;4.57;;;;;;;;;;5069346;28;20456;-74
2022/09/07 06:10:05;;;;;;;6.60;3.93;;;;;;;;;;5068954;28;20456;-73
2022/09/07 06:12:32;;;;;;;7.23;4.17;;;;;;;;;;5070282;28;20453;-74
2022/09/07 06:15:03;;;;;;;9.20;5.20;;;;;;;;;;5070855;28;20983;-75
2022/09/07 06:17:31;;;;;;;6.27;3.43;;;;;;;;;;5061049;28;20475;-75
2022/09/07 06:19:58;;;;;;;8.00;4.13;;;;;;;;;;5067145;28;20600;-74
2022/09/07 06:22:28;;;;;;;7.00;4.07;;;;;;;;;;5065253;28;20481;-74
2022/09/07 06:25:11;;;;;;;6.13;3.93;;;;;;;;;;5062302;28;20471;-75
2022/09/07 06:27:44;;;;;;;7.90;5.10;;;;;;;;;;5065256;28;20560;-75
2022/09/07 06:30:13;;;;;;;11.03;4.60;;;;;;;;;;5069574;28;20471;-74
2022/09/07 06:32:40;;;;;;;6.03;4.30;;;;;;;;;;5068432;28;20953;-75
2022/09/07 06:35:09;;;;;;;8.13;5.40;;;;;;;;;;5071235;28;20460;-74
2022/09/07 06:37:36;;;;;;;4.73;4.20;;;;;;;;;;5066597;28;20462;-74
2022/09/07 06:40:03;;;;;;;8.80;4.63;;;;;;;;;;5071147;28;20503;-74
2022/09/07 06:42:33;;;;;;;8.97;7.10;;;;;;;;;;5070387;28;20527;-74
2022/09/07 06:45:01;;;;;;;6.00;4.20;;;;;;;;;;5073547;28;20471;-75
2022/09/07 06:47:30;;;;;;;6.60;4.10;;;;;;;;;;5074280;28;21006;-74
2022/09/07 06:49:57;;;;;;;6.10;4.60;;;;;;;;;;5073642;28;21028;-74
2022/09/07 06:52:27;;;;;;;7.13;4.20;;;;;;;;;;5076031;28;20456;-74
2022/09/07 06:54:54;;;;;;;7.13;5.57;;;;;;;;;;5074030;28;20490;-74
2022/09/07 06:57:21;;;;;;;10.50;4.80;;;;;;;;;;5072290;28;20898;-74
2022/09/07 06:59:48;;;;;;;6.33;4.00;;;;;;;;;;5072659;28;20498;-74
2022/09/07 07:02:16;;;;;;;16.03;5.17;;;;;;;;;;5073343;28;20500;-74
2022/09/07 07:04:46;;;;;;;5.20;4.13;;;;;;;;;;5072437;28;20539;-74
2022/09/07 07:07:14;;;;;;;5.60;3.60;;;;;;;;;;5071144;28;20468;-74
2022/09/07 07:09:41;;;;;;;8.43;4.90;;;;;;;;;;5073116;28;20463;-74
2022/09/07 07:12:08;;;;;;;8.90;5.30;;;;;;;;;;5071483;28;20923;-75
2022/09/07 07:14:38;;;;;;;7.53;4.40;;;;;;;;;;5067360;28;20524;-76
2022/09/07 07:17:15;;;;;;;10.03;4.90;;;;;;;;;;5073486;28;20951;-75
2022/09/07 07:19:48;;;;;;;7.53;5.10;;;;;;;;;;5068554;28;20494;-74
2022/09/07 07:22:24;;;;;;;11.13;4.80;;;;;;;;;;5072742;28;20492;-73
2022/09/07 07:24:58;;;;;;;8.17;5.20;;;;;;;;;;5074331;28;20488;-74
2022/09/07 07:27:25;;;;;;;7.40;5.63;;;;;;;;;;5053844;28;20468;-74
2022/09/07 07:29:54;;;;;;;8.13;5.37;;;;;;;;;;5060173;28;20806;-73
2022/09/07 07:32:22;;;;;;;7.80;6.10;;;;;;;;;;5073506;28;20538;-75
2022/09/07 07:34:53;;;;;;;8.00;5.00;;;;;;;;;;5067510;28;20457;-75
2022/09/07 07:37:25;;;;;;;6.80;4.90;;;;;;;;;;5063246;28;20475;-74
2022/09/07 07:39:52;;;;;;;6.47;5.17;;;;;;;;;;5062050;28;20915;-74
2022/09/07 07:42:20;;;;;;;8.47;5.20;;;;;;;;;;5063158;28;20655;-73
2022/09/07 07:44:53;;;;;;;7.50;5.80;;;;;;;;;;5062962;28;20465;-72
2022/09/07 07:47:28;;;;;;;8.03;5.80;;;;;;;;;;5063663;28;20804;-75
2022/09/07 07:49:59;;;;;;;7.33;5.60;;;;;;;;;;5067366;28;20468;-72
2022/09/07 07:52:32;;;;;;;7.77;4.87;;;;;;;;;;5072211;28;20466;-73
2022/09/07 07:55:31;;;;;;;7.30;6.30;;;;;;;;;;5066487;28;20457;-76
2022/09/07 08:01:15;;;;;;;9.70;5.23;;;;;;;;;;5029897;28;20471;-74
2022/09/07 08:03:46;;;;;;;13.10;6.70;;;;;;;;;;5069989;28;20464;-74
2022/09/07 08:09:16;;;;;;;7.57;5.50;;;;;;;;;;5052904;28;20516;-73
2022/09/07 08:11:46;;;;;;;6.73;4.67;;;;;;;;;;5060559;28;20465;-73
2022/09/07 08:14:13;;;;;;;7.63;6.70;;;;;;;;;;5062398;28;20468;-73
2022/09/07 08:16:53;;;;;;;7.60;5.43;;;;;;;;;;5061885;28;20556;-73
2022/09/07 08:19:23;;;;;;;7.53;4.80;;;;;;;;;;5063532;28;21048;-73
2022/09/07 08:21:55;;;;;;;6.30;5.17;;;;;;;;;;5063264;28;20497;-74
2022/09/07 08:24:29;;;;;;;8.33;5.03;;;;;;;;;;5061342;28;20469;-74
2022/09/07 08:26:56;;;;;;;9.10;4.63;;;;;;;;;;5062052;28;20464;-74
2022/09/07 08:29:23;;;;;;;10.20;5.17;;;;;;;;;;5062280;28;20457;-71
2022/09/07 08:31:58;;;;;;;9.07;4.77;;;;;;;;;;5058962;28;20461;-74
2022/09/07 08:34:32;;;;;;;7.73;5.10;;;;;;;;;;5063927;28;20504;-75
2022/09/07 08:37:00;;;;;;;14.97;7.50;;;;;;;;;;5061622;28;21162;-74
2022/09/07 08:39:28;;;;;;;7.30;5.33;;;;;;;;;;5058482;28;20468;-74
2022/09/07 08:42:03;;;;;;;6.70;4.13;;;;;;;;;;5060386;28;20485;-75
2022/09/07 08:44:33;;;;;;;6.50;5.13;;;;;;;;;;5073944;28;21314;-73
2022/09/07 08:47:03;;;;;;;8.53;4.90;;;;;;;;;;5058988;28;21081;-75
2022/09/07 08:49:33;;;;;;;6.07;3.87;;;;;;;;;;5068842;28;20460;-73
2022/09/07 08:52:03;;;;;;;14.50;5.40;;;;;;;;;;5073260;28;20456;-75
2022/09/07 08:54:40;;;;;;;7.80;3.97;;;;;;;;;;5068823;28;20449;-74
2022/09/07 08:57:10;;;;;;;8.00;4.80;;;;;;;;;;5065093;28;20954;-74
2022/09/07 08:59:44;;;;;;;7.97;4.10;;;;;;;;;;5067436;28;20461;-74
2022/09/07 09:02:13;;;;;;;8.20;4.73;;;;;;;;;;5066755;28;20593;-73
2022/09/07 09:04:44;;;;;;;4.70;3.87;;;;;;;;;;5069260;28;20461;-73
2022/09/07 09:07:23;;;;;;;6.90;4.67;;;;;;;;;;5061218;28;20507;-73
2022/09/07 09:10:03;;;;;;;7.63;5.20;;;;;;;;;;5065428;28;20456;-73
2022/09/07 09:12:33;;;;;;;6.73;3.97;;;;;;;;;;5071033;28;20465;-72
2022/09/07 09:15:29;;;;;;;6.67;4.33;;;;;;;;;;5070379;28;20471;-73
2022/09/07 09:18:01;;;;;;;5.87;4.40;;;;;;;;;;5059787;28;20472;-73
2022/09/07 09:20:31;;;;;;;6.80;5.30;;;;;;;;;;5054661;28;20468;-73
2022/09/07 09:23:03;;;;;;;9.10;5.27;;;;;;;;;;5063521;28;20480;-74
2022/09/07 09:25:32;;;;;;;7.13;4.40;;;;;;;;;;5073484;28;20878;-73
2022/09/07 09:28:01;;;;;;;5.87;4.50;;;;;;;;;;5073623;28;20582;-73
2022/09/07 09:30:28;;;;;;;9.57;5.83;;;;;;;;;;5053199;28;20469;-73
2022/09/07 09:33:13;;;;;;;6.47;5.07;;;;;;;;;;5058623;28;20975;-73
2022/09/07 09:35:48;;;;;;;6.37;4.33;;;;;;;;;;5072300;28;20858;-73
2022/09/07 09:38:44;;;;;;;;;;;;;;;;;;;;;
2022/09/07 09:41:40;;;;;;;6.87;5.43;;;;;;;;;;5063211;28;20844;-72
2022/09/07 09:44:15;;;;;;;7.37;6.07;;;;;;;;;;5061982;28;20460;-73
2022/09/07 09:46:47;;;;;;;7.10;5.90;;;;;;;;;;5061344;28;20542;-73
2022/09/07 09:49:27;;;;;;;9.90;5.50;;;;;;;;;;5063256;28;20774;-73
2022/09/07 09:52:17;;;;;;;7.10;5.30;;;;;;;;;;5071640;28;20463;-73
2022/09/07 09:54:55;;;;;;;9.27;5.50;;;;;;;;;;5057291;28;20786;-73
2022/09/07 09:57:39;;;;;;;8.23;4.80;;;;;;;;;;5063594;28;20475;-73
2022/09/07 10:00:43;;;;;;;11.83;6.97;;;;;;;;;;5062433;28;21173;-73
2022/09/07 10:03:19;;;;;;;6.30;5.17;;;;;;;;;;5033188;28;20469;-73
2022/09/07 10:05:49;;;;;;;8.67;5.90;;;;;;;;;;5067990;28;20461;-73
2022/09/07 10:08:25;;;;;;;8.70;6.17;;;;;;;;;;5062803;28;20567;-75
2022/09/07 10:11:03;;;;;;;7.93;6.60;;;;;;;;;;5052464;28;20468;-73
2022/09/07 10:13:35;;;;;;;12.97;7.27;;;;;;;;;;5063194;28;20474;-73
2022/09/07 10:16:05;;;;;;;7.43;6.37;;;;;;;;;;5056856;28;20455;-72
2022/09/07 10:18:35;;;;;;;10.50;7.87;;;;;;;;;;5059651;28;20461;-72
2022/09/07 10:21:36;;;;;;;7.30;6.13;;;;;;;;;;5059383;28;20476;-73
2022/09/07 10:27:52;;;;;;;;;;;;;;;;;;;;;
2022/09/07 10:30:20;;;;;;;7.47;5.60;;;;;;;;;;5065753;28;20890;-73
2022/09/07 10:35:58;;;;;;;8.23;6.30;;;;;;;;;;5068478;28;20452;-73
2022/09/07 10:38:39;;;;;;;8.90;6.80;;;;;;;;;;5069544;28;20471;-74
2022/09/07 10:41:12;;;;;;;8.97;6.47;;;;;;;;;;5071506;28;20479;-73
2022/09/07 10:43:48;;;;;;;7.30;5.50;;;;;;;;;;5068446;28;20541;-73
2022/09/07 10:46:33;;;;;;;7.47;5.97;;;;;;;;;;5066523;28;20464;-74
2022/09/07 10:49:09;;;;;;;14.30;9.83;;;;;;;;;;5063805;28;20462;-74
2022/09/07 10:51:39;;;;;;;7.27;6.20;;;;;;;;;;5059534;28;20554;-74
2022/09/07 10:54:11;;;;;;;10.10;7.77;;;;;;;;;;5058943;28;20461;-74
2022/09/07 10:56:44;;;;;;;9.97;8.97;;;;;;;;;;5058915;28;20474;-75
2022/09/07 10:59:28;;;;;;;8.07;6.03;;;;;;;;;;5057833;28;20491;-74
2022/09/07 11:02:08;;;;;;;6.03;5.37;;;;;;;;;;5056225;28;20541;-75
2022/09/07 11:05:01;;;;;;;;;;;;;;;;;;;;;
2022/09/07 11:08:03;;;;;;;7.83;6.40;;;;;;;;;;5052133;28;20515;-76
2022/09/07 11:10:47;;;;;;;11.30;5.60;;;;;;;;;;5050938;28;20730;-75
2022/09/07 11:13:35;;;;;;;8.13;5.70;;;;;;;;;;5061228;28;20469;-75
2022/09/07 11:16:09;;;;;;;10.87;7.00;;;;;;;;;;5061636;28;20459;-74
2022/09/07 11:18:53;;;;;;;9.67;6.00;;;;;;;;;;5058182;28;20479;-74
2022/09/07 11:21:43;;;;;;;8.53;6.40;;;;;;;;;;5064552;28;21105;-74
2022/09/07 11:27:40;;;;;;;8.10;5.63;;;;;;;;;;5056526;28;20452;-75
2022/09/07 11:42:01;;;;;;;19.57;17.57;;;;;;;;;;5057264;28;20522;-75
2022/09/07 11:45:01;;;;;;;7.57;5.97;;;;;;;;;;5074769;28;20467;-75
2022/09/07 11:53:29;;;;;;;7.97;6.50;;;;;;;;;;5054103;28;20576;-74
2022/09/07 11:56:11;;;;;;;14.40;6.57;;;;;;;;;;5057899;28;20448;-74
2022/09/07 11:58:57;;;;;;;8.23;6.60;;;;;;;;;;5073871;28;20765;-74
2022/09/07 12:01:35;;;;;;;7.10;5.03;;;;;;;;;;5061184;28;20844;-75
2022/09/07 12:04:38;;;;;;;7.23;6.40;;;;;;;;;;5075142;28;20483;-73
2022/09/07 12:07:22;;;;;;;6.77;5.90;;;;;;;;;;4997388;28;20965;-74
2022/09/07 12:16:38;;;;;;;7.70;6.30;;;;;;;;;;5002773;28;20463;-73
2022/09/07 12:19:23;;;;;;;6.87;6.17;;;;;;;;;;5063897;28;20482;-73
2022/09/07 12:22:17;;;;;;;7.27;6.50;;;;;;;;;;5074272;28;20748;-75
2022/09/07 12:24:45;;;;;;;7.53;6.23;;;;;;;;;;5069493;28;20472;-74
2022/09/07 12:27:36;;;;;;;8.27;6.67;;;;;;;;;;5068316;28;20894;-73
2022/09/07 12:30:22;;;;;;;6.87;6.00;;;;;;;;;;5073473;28;20470;-73
2022/09/07 12:33:19;;;;;;;11.17;7.37;;;;;;;;;;5073638;28;20472;-74
2022/09/07 12:35:59;;;;;;;8.80;6.80;;;;;;;;;;5074585;28;20444;-74
2022/09/07 12:39:04;;;;;;;8.70;6.40;;;;;;;;;;5072610;28;20735;-73
2022/09/07 12:42:04;;;;;;;12.40;9.70;;;;;;;;;;5070325;28;20474;-73
2022/09/07 12:44:33;;;;;;;8.73;7.40;;;;;;;;;;5011211;28;20467;-73
2022/09/07 12:47:03;;;;;;;13.23;10.63;;;;;;;;;;5048331;28;20456;-74
2022/09/07 12:49:46;;;;;;;7.30;6.60;;;;;;;;;;5071878;28;20584;-75
2022/09/07 12:52:44;;;;;;;10.97;8.60;;;;;;;;;;5066069;28;20798;-74
2022/09/07 12:55:18;;;;;;;7.87;7.07;;;;;;;;;;5085608;28;20464;-74
2022/09/07 12:58:13;;;;;;;7.83;7.03;;;;;;;;;;5072515;28;20460;-74
2022/09/07 13:01:28;;;;;;;8.57;7.00;;;;;;;;;;5063320;28;21028;-77
2022/09/07 13:04:24;;;;;;;10.50;8.03;;;;;;;;;;5051212;28;20500;-74
2022/09/07 13:07:18;;;;;;;10.50;9.13;;;;;;;;;;4973398;28;20472;-75
2022/09/07 13:09:57;;;;;;;13.20;9.07;;;;;;;;;;4970435;28;20454;-75
2022/09/07 13:12:32;;;;;;;9.70;8.70;;;;;;;;;;4971877;28;20534;-74
2022/09/07 13:15:03;;;;;;;14.73;9.87;;;;;;;;;;4972728;28;20527;-73
2022/09/07 13:17:54;;;;;;;12.53;8.83;;;;;;;;;;4972120;28;21016;-74
2022/09/07 13:20:35;;;;;;;14.13;10.10;;;;;;;;;;4969062;28;20477;-76
2022/09/07 13:23:33;;;;;;;9.03;8.13;;;;;;;;;;4970834;28;21023;-75
2022/09/07 13:26:05;;;;;;;10.87;8.50;;;;;;;;;;4971439;28;20469;-75
2022/09/07 13:28:55;;;;;;;10.70;8.40;;;;;;;;;;4971641;28;20708;-75
2022/09/07 13:35:03;;;;;;;9.87;8.87;;;;;;;;;;4931200;28;20545;-74
2022/09/07 13:37:45;;;;;;;9.30;8.43;;;;;;;;;;4975480;28;20468;-73
2022/09/07 13:43:27;;;;;;;16.20;10.43;;;;;;;;;;4968371;28;20487;-75
2022/09/07 13:46:19;;;;;;;;;;;;;;;;;;;;;
2022/09/07 13:48:59;;;;;;;12.63;10.17;;;;;;;;;;4975796;28;20475;-75
2022/09/07 13:51:34;;;;;;;9.73;8.17;;;;;;;;;;4972434;28;20449;-75
2022/09/07 13:54:14;;;;;;;9.50;7.27;;;;;;;;;;4973293;28;20802;-75
2022/09/07 13:59:42;;;;;;;11.97;9.93;;;;;;;;;;4972529;28;20449;-74
2022/09/07 14:02:27;;;;;;;10.17;8.77;;;;;;;;;;4964452;28;20812;-74
2022/09/07 14:04:59;;;;;;;12.53;11.13;;;;;;;;;;4970566;28;20461;-74
2022/09/07 14:07:28;;;;;;;11.47;9.93;;;;;;;;;;4972987;28;20484;-75
2022/09/07 14:10:07;;;;;;;11.47;9.33;;;;;;;;;;4971254;28;20744;-73
2022/09/07 14:12:50;;;;;;;12.47;8.13;;;;;;;;;;4971289;28;20530;-75
2022/09/07 14:15:19;;;;;;;9.30;8.37;;;;;;;;;;4969481;28;20456;-76
2022/09/07 14:18:08;;;;;;;9.23;8.30;;;;;;;;;;4972458;28;20461;-75
2022/09/07 14:20:44;;;;;;;8.67;7.77;;;;;;;;;;4950441;28;20508;-75
2022/09/07 14:23:22;;;;;;;8.80;7.90;;;;;;;;;;4962810;28;20588;-75
2022/09/07 14:26:06;;;;;;;11.23;10.13;;;;;;;;;;5048088;28;20461;-75
2022/09/07 14:28:40;;;;;;;15.73;14.10;;;;;;;;;;4982708;28;20926;-76
2022/09/07 14:31:21;;;;;;;9.10;8.20;;;;;;;;;;4974341;28;21062;-75
2022/09/07 14:34:02;;;;;;;10.30;9.20;;;;;;;;;;4972414;28;20472;-75
2022/09/07 14:36:33;;;;;;;11.00;8.30;;;;;;;;;;4972952;28;20484;-75
2022/09/07 14:39:03;;;;;;;11.43;8.77;;;;;;;;;;4969963;28;20537;-75
2022/09/07 14:41:33;;;;;;;9.33;8.33;;;;;;;;;;4971999;28;20480;-76
2022/09/07 14:44:26;;;;;;;9.03;7.40;;;;;;;;;;4972139;28;20499;-76
2022/09/07 14:46:56;;;;;;;9.07;8.00;;;;;;;;;;4954839;28;20480;-76
2022/09/07 14:49:26;;;;;;;7.80;6.97;;;;;;;;;;4954761;28;20537;-77
2022/09/07 14:52:11;;;;;;;9.50;8.60;;;;;;;;;;4952706;28;20458;-76
2022/09/07 14:54:44;;;;;;;10.60;7.30;;;;;;;;;;4953674;28;20568;-76
2022/09/07 14:57:27;;;;;;;8.20;7.33;;;;;;;;;;4953950;28;20456;-74
2022/09/07 14:59:56;;;;;;;10.27;9.27;;;;;;;;;;4953888;28;20458;-77
2022/09/07 15:02:40;;;;;;;9.30;7.90;;;;;;;;;;4956179;28;20496;-77
2022/09/07 15:05:17;;;;;;;9.10;8.17;;;;;;;;;;4957528;28;20632;-77
2022/09/07 15:08:18;;;;;;;11.10;8.73;;;;;;;;;;4969227;28;20465;-77
2022/09/07 15:22:34;;;;;;;9.40;8.50;;;;;;;;;;4875698;29;20556;-76
2022/09/07 15:31:02;;;;;;;9.63;8.63;;;;;;;;;;4974004;28;20488;-75
2022/09/07 15:33:54;;;;;;;10.27;8.53;;;;;;;;;;4978416;28;20783;-74
2022/09/07 15:36:28;;;;;;;8.70;7.50;;;;;;;;;;4975363;28;20725;-76
2022/09/07 15:38:55;;;;;;;10.03;8.67;;;;;;;;;;4972631;28;20542;-77
2022/09/07 15:41:43;;;;;;;11.03;9.00;;;;;;;;;;4974000;28;20453;-76
2022/09/07 15:44:17;;;;;;;11.17;7.23;;;;;;;;;;4962470;28;20490;-75
2022/09/07 15:46:46;;;;;;;7.73;6.97;;;;;;;;;;4970285;28;20471;-75
2022/09/07 15:49:16;;;;;;;9.00;8.10;;;;;;;;;;4992716;28;20862;-75
2022/09/07 15:57:39;;;;;;;9.60;8.70;;;;;;;;;;5074697;28;20554;-76
2022/09/07 16:03:19;;;;;;;8.40;7.70;;;;;;;;;;4949949;28;20483;-77
2022/09/07 16:05:52;;;;;;;10.13;9.13;;;;;;;;;;4992532;28;20488;-77
2022/09/07 16:08:32;;;;;;;10.03;8.97;;;;;;;;;;4990820;28;20862;-77
2022/09/07 16:11:18;;;;;;;10.50;7.40;;;;;;;;;;4989859;28;20471;-77
2022/09/07 16:14:01;;;;;;;15.80;10.87;;;;;;;;;;4989961;28;20479;-78
2022/09/07 16:19:44;;;;;;;13.63;11.17;;;;;;;;;;4989244;28;20517;-76
2022/09/07 16:22:39;;;;;;;;;;;;;;;;;;;;;
2022/09/07 16:25:11;;;;;;;9.10;8.20;;;;;;;;;;4980802;28;20469;-77
2022/09/07 16:27:51;;;;;;;11.20;7.83;;;;;;;;;;4977671;28;20555;-76
2022/09/07 16:30:24;;;;;;;7.87;7.10;;;;;;;;;;4977613;28;20459;-76
2022/09/07 16:32:57;;;;;;;8.37;7.50;;;;;;;;;;4973936;28;20548;-76
2022/09/07 16:38:47;;;;;;;9.50;8.30;;;;;;;;;;4984272;28;20448;-78
2022/09/07 16:41:38;;;;;;;9.20;7.63;;;;;;;;;;4971333;28;20537;-77
2022/09/07 16:44:10;;;;;;;8.03;7.30;;;;;;;;;;4967674;28;20493;-76
2022/09/07 16:47:09;;;;;;;9.80;8.07;;;;;;;;;;4977367;28;20454;-77
2022/09/07 16:49:43;;;;;;;9.70;7.93;;;;;;;;;;4978926;28;20491;-77
2022/09/07 16:52:55;;;;;;;8.17;7.37;;;;;;;;;;4974869;28;20462;-77
2022/09/07 16:55:27;;;;;;;9.67;7.47;;;;;;;;;;4973241;28;20471;-75